No particular awareness of the weather is required.    There are no Weather-warnings


Meteo18 Weather Cam more information Meteo18 Weather Cam


Thunder radar more information blitzortung!


Rain radar more information rain snow radar


Visit our other weather sites:

Template documentation
and downloads

And another site



Weather Underground History page Text

Daily Summary for September 3, 2017 Units:  English    Metric   Both
« Previous Day
Next Day »
Daily Weekly Monthly Yearly Custom
  High: Low: Average:
Temperature: 72.7 °F 46 °F 60.4 °F
Dew Point: 54 °F 43.5 °F 48 °F
Humidity: 96 % 38 % 67 %
Wind Speed: 9 mph 0 mph 1 mph
Wind Gust: 12 mph - -
Wind:- - SSW
Pressure: 30.2 in 29.9 in -
Precipitation: 0 in    
Historical Graphs
 
 
Tabular Data for September 3, 2017
Time Temperature Dew Point Pressure Wind Wind Speed Wind Gust Humidity Rainfall Rate (Hourly)
00:02 54.7 °F 49.3 °F 30.2 in Calm     82 % 0 in
00:07 54.3 °F 48.9 °F 30.2 in Calm     82 % 0 in
00:12 54.7 °F 48.9 °F 30.2 in Calm     81 % 0 in
00:17 54.9 °F 48.7 °F 30.2 in Calm     80 % 0 in
00:22 54.7 °F 48.9 °F 30.2 in Calm     81 % 0 in
00:27 54.3 °F 48.6 °F 30.2 in Calm     81 % 0 in
00:32 54 °F 48.6 °F 30.2 in Calm     82 % 0 in
00:42 53.1 °F 48.4 °F 30.2 in Calm     84 % 0 in
00:47 52.9 °F 48.6 °F 30.2 in Calm     85 % 0 in
00:52 52.7 °F 48.4 °F 30.2 in Calm     85 % 0 in
01:02 52.3 °F 48.2 °F 30.2 in Calm     86 % 0 in
01:07 52.3 °F 48.6 °F 30.2 in Calm     87 % 0 in
01:12 52.5 °F 48.4 °F 30.2 in Calm     86 % 0 in
01:17 52.9 °F 48.7 °F 30.2 in Calm     86 % 0 in
01:22 52.7 °F 48.9 °F 30.2 in Calm     87 % 0 in
01:27 52.7 °F 48.9 °F 30.2 in North 1 mph   87 % 0 in
01:32 52.7 °F 48.9 °F 30.2 in NNE 1 mph 2 mph 87 % 0 in
01:37 52.5 °F 48.7 °F 30.2 in NNE 1 mph 2 mph 87 % 0 in
01:42 52.3 °F 48.9 °F 30.2 in North 1 mph 2 mph 88 % 0 in
01:47 52.2 °F 48.7 °F 30.2 in North 1 mph 3 mph 88 % 0 in
01:52 52.2 °F 48.7 °F 30.2 in Calm   3 mph 88 % 0 in
01:57 52.2 °F 48.4 °F 30.2 in Calm   2 mph 87 % 0 in
02:02 51.8 °F 48 °F 30.2 in WNW 1 mph 2 mph 87 % 0 in
02:07 51.6 °F 48.2 °F 30.2 in Calm   2 mph 88 % 0 in
02:12 51.3 °F 47.8 °F 30.2 in Calm   2 mph 88 % 0 in
02:17 51.1 °F 48 °F 30.2 in Calm   2 mph 89 % 0 in
02:22 50.7 °F 47.7 °F 30.2 in Calm   1 mph 89 % 0 in
02:32 50.9 °F 48 °F 30.2 in Calm     90 % 0 in
02:37 50.7 °F 47.7 °F 30.2 in Calm     89 % 0 in
02:42 50.4 °F 47.3 °F 30.1 in Calm     89 % 0 in
02:47 49.6 °F 46.8 °F 30.1 in Calm     90 % 0 in
02:52 49.8 °F 47.3 °F 30.1 in Calm     91 % 0 in
03:02 50.2 °F 48 °F 30.1 in Calm     92 % 0 in
03:07 50.2 °F 47.7 °F 30.1 in Calm     91 % 0 in
03:12 49.5 °F 46.9 °F 30.1 in Calm     91 % 0 in
03:17 49.3 °F 46.8 °F 30.1 in Calm     91 % 0 in
03:27 49.3 °F 47.1 °F 30.1 in Calm     92 % 0 in
03:32 49.5 °F 47.3 °F 30.1 in Calm     92 % 0 in
03:37 49.6 °F 47.5 °F 30.1 in Calm     92 % 0 in
03:42 49.5 °F 47.3 °F 30.1 in Calm     92 % 0 in
03:47 49.5 °F 47.3 °F 30.1 in Calm     92 % 0 in
03:52 48.7 °F 46.2 °F 30.1 in Calm     91 % 0 in
03:57 48.6 °F 46.4 °F 30.1 in Calm     92 % 0 in
04:02 48.4 °F 46.2 °F 30.1 in Calm     92 % 0 in
04:07 48.6 °F 46.6 °F 30.1 in Calm     93 % 0 in
04:12 48.6 °F 46.6 °F 30.1 in Calm     93 % 0 in
04:17 48.4 °F 46.2 °F 30.1 in Calm     92 % 0 in
04:22 48.4 °F 46.4 °F 30.1 in Calm     93 % 0 in
04:27 48.2 °F 46.2 °F 30.1 in Calm     93 % 0 in
04:32 48 °F 46 °F 30.1 in Calm     93 % 0 in
04:37 48.4 °F 46.4 °F 30.1 in Calm     93 % 0 in
04:42 48.4 °F 46.4 °F 30.1 in Calm     93 % 0 in
04:47 48.4 °F 46.4 °F 30.1 in Calm     93 % 0 in
04:52 48.4 °F 46.4 °F 30.1 in Calm     93 % 0 in
04:57 48.2 °F 46.2 °F 30.1 in Calm     93 % 0 in
05:02 48 °F 46 °F 30.1 in Calm     93 % 0 in
05:07 47.8 °F 45.9 °F 30.1 in Calm     93 % 0 in
05:12 47.7 °F 45.7 °F 30.1 in Calm     93 % 0 in
05:22 47.5 °F 45.5 °F 30.1 in Calm     93 % 0 in
05:27 47.5 °F 45.5 °F 30.1 in Calm     93 % 0 in
05:32 47.5 °F 45.9 °F 30.1 in Calm     94 % 0 in
05:37 47.5 °F 45.9 °F 30.1 in Calm     94 % 0 in
05:42 47.5 °F 45.9 °F 30.1 in Calm     94 % 0 in
05:47 47.3 °F 45.7 °F 30.1 in Calm     94 % 0 in
05:52 46.9 °F 45 °F 30.1 in Calm     93 % 0 in
05:57 46.9 °F 45.3 °F 30.1 in Calm     94 % 0 in
06:02 46.8 °F 45.1 °F 30.1 in Calm     94 % 0 in
06:07 46.8 °F 45.1 °F 30.1 in Calm     94 % 0 in
06:12 46.9 °F 45.3 °F 30.1 in Calm     94 % 0 in
06:17 46.6 °F 45 °F 30.1 in Calm     94 % 0 in
06:22 46.6 °F 45 °F 30.1 in Calm     94 % 0 in
06:27 46.4 °F 44.8 °F 30.1 in Calm     94 % 0 in
06:32 46.6 °F 45.1 °F 30.1 in Calm     95 % 0 in
06:42 46.6 °F 45.1 °F 30.1 in Calm     95 % 0 in
06:47 46.6 °F 45.1 °F 30.1 in Calm     95 % 0 in
06:52 46.2 °F 44.6 °F 30.1 in Calm     94 % 0 in
07:02 46 °F 44.6 °F 30.1 in Calm     95 % 0 in
07:07 46 °F 44.6 °F 30.1 in Calm     95 % 0 in
07:12 46 °F 44.6 °F 30.1 in Calm     95 % 0 in
07:17 46 °F 44.6 °F 30.1 in Calm     95 % 0 in
07:22 46 °F 44.6 °F 30.1 in Calm     95 % 0 in
07:27 46 °F 44.6 °F 30.1 in Calm     95 % 0 in
07:32 46.2 °F 44.8 °F 30.1 in Calm     95 % 0 in
07:37 46.4 °F 45 °F 30.1 in Calm     95 % 0 in
07:42 46.6 °F 45.1 °F 30.1 in Calm     95 % 0 in
07:47 46.8 °F 45.3 °F 30.1 in Calm     95 % 0 in
07:52 46.9 °F 45.5 °F 30.1 in Calm     95 % 0 in
07:57 46.8 °F 45.3 °F 30.1 in Calm     95 % 0 in
08:02 46.9 °F 45.5 °F 30.1 in Calm     95 % 0 in
08:07 47.5 °F 46 °F 30.1 in Calm     95 % 0 in
08:12 48.4 °F 47.3 °F 30.1 in Calm     96 % 0 in
08:17 49.5 °F 48.4 °F 30.1 in Calm     96 % 0 in
08:22 50.4 °F 49.3 °F 30.1 in Calm     96 % 0 in
08:32 51.6 °F 50.2 °F 30.1 in Calm     95 % 0 in
08:37 52.5 °F 51.1 °F 30.1 in Calm     95 % 0 in
08:42 53.1 °F 51.1 °F 30.1 in Calm     93 % 0 in
08:47 53.8 °F 51.4 °F 30.1 in Calm     92 % 0 in
08:57 53.8 °F 50.5 °F 30.1 in Calm   2 mph 89 % 0 in
09:02 53.4 °F 50 °F 30.1 in Calm   2 mph 88 % 0 in
09:12 53.2 °F 49.8 °F 30.1 in Calm   2 mph 88 % 0 in
09:17 53.4 °F 50.2 °F 30.1 in Calm   2 mph 89 % 0 in
09:27 53.6 °F 50.2 °F 30.1 in Calm   2 mph 88 % 0 in
09:32 54 °F 50.5 °F 30.1 in Calm   2 mph 88 % 0 in
09:42 55.4 °F 51.3 °F 30.1 in Calm     86 % 0 in
09:47 56.1 °F 52 °F 30.1 in Calm     86 % 0 in
09:57 57.2 °F 51.8 °F 30.1 in Calm   2 mph 82 % 0 in
10:02 57.9 °F 52.5 °F 30.1 in ESE 2 mph 2 mph 82 % 0 in
10:07 58.6 °F 52.9 °F 30.1 in Calm   2 mph 81 % 0 in
10:12 59.2 °F 52.7 °F 30.1 in Calm   2 mph 79 % 0 in
10:17 59.4 °F 52.5 °F 30.1 in ESE 1 mph 2 mph 78 % 0 in
10:22 59.2 °F 52.7 °F 30.1 in Calm   3 mph 79 % 0 in
10:27 59.4 °F 52.5 °F 30.1 in Calm   3 mph 78 % 0 in
10:32 59.2 °F 52.3 °F 30.1 in SE 1 mph 3 mph 78 % 0 in
10:37 59.2 °F 52.7 °F 30.1 in SE 1 mph 3 mph 79 % 0 in
10:42 60.1 °F 53.2 °F 30.1 in Calm   3 mph 78 % 0 in
10:47 60.4 °F 53.6 °F 30.1 in Calm   3 mph 78 % 0 in
10:52 61 °F 53.4 °F 30.1 in ESE 2 mph 2 mph 76 % 0 in
10:57 61 °F 53.4 °F 30.1 in Calm   3 mph 76 % 0 in
11:02 61.3 °F 53.8 °F 30.1 in ENE 1 mph 3 mph 76 % 0 in
11:07 62.2 °F 53.8 °F 30.1 in WSW 1 mph 3 mph 74 % 0 in
11:12 63 °F 53.8 °F 30.1 in East 2 mph 3 mph 72 % 0 in
11:17 62.8 °F 53.2 °F 30.1 in ENE 1 mph 3 mph 71 % 0 in
11:22 62.8 °F 53.6 °F 30.1 in East 3 mph 5 mph 72 % 0 in
11:27 63.9 °F 54 °F 30.1 in SSW 2 mph 5 mph 70 % 0 in
11:32 64.4 °F 54 °F 30.1 in ENE 1 mph 5 mph 69 % 0 in
11:37 64.9 °F 53.2 °F 30.1 in WSW 1 mph 3 mph 66 % 0 in
11:42 65.5 °F 53.4 °F 30.1 in SW 2 mph 3 mph 65 % 0 in
11:47 66 °F 54 °F 30.1 in ESE 1 mph 3 mph 65 % 0 in
11:57 66.7 °F 53.8 °F 30.1 in ENE 2 mph 5 mph 63 % 0 in
12:02 66.4 °F 53.4 °F 30.1 in SSE 1 mph 5 mph 63 % 0 in
12:07 66.7 °F 51.4 °F 30.1 in SW 1 mph 8 mph 58 % 0 in
12:12 67.3 °F 52.5 °F 30.1 in SSE 2 mph 8 mph 59 % 0 in
12:17 67.8 °F 52 °F 30.1 in SW 6 mph 8 mph 57 % 0 in
12:22 67.3 °F 50.5 °F 30.1 in SSW 3 mph 9 mph 55 % 0 in
12:27 67.3 °F 51.1 °F 30.1 in Calm   9 mph 56 % 0 in
12:32 67.5 °F 51.6 °F 30.1 in Calm   9 mph 57 % 0 in
12:37 68 °F 52.2 °F 30.1 in Calm   8 mph 57 % 0 in
12:42 69.1 °F 51.8 °F 30.1 in ESE 1 mph 7 mph 54 % 0 in
12:47 69.1 °F 51.8 °F 30.1 in SE 2 mph 7 mph 54 % 0 in
12:52 70.2 °F 51.8 °F 30 in South 2 mph 7 mph 52 % 0 in
12:57 70.3 °F 49.6 °F 30.1 in WSW 5 mph 8 mph 48 % 0 in
13:02 70 °F 50 °F 30 in SSW 2 mph 8 mph 49 % 0 in
13:07 69.6 °F 48.6 °F 30 in WSW 3 mph 8 mph 47 % 0 in
13:12 69.4 °F 49.5 °F 30 in South 4 mph 8 mph 49 % 0 in
13:17 69.3 °F 48.2 °F 30 in East 1 mph 8 mph 47 % 0 in
13:22 69.4 °F 48.9 °F 30 in Calm   7 mph 48 % 0 in
13:27 70.2 °F 48.9 °F 30 in East 3 mph 6 mph 47 % 0 in
13:32 70 °F 49.5 °F 30 in SSW 3 mph 7 mph 48 % 0 in
13:37 70.2 °F 47.8 °F 30 in WSW 1 mph 10 mph 45 % 0 in
13:42 70.9 °F 49.1 °F 30 in West 1 mph 10 mph 46 % 0 in
13:47 72 °F 48.2 °F 30 in ESE 2 mph 5 mph 43 % 0 in
13:52 71.1 °F 47.5 °F 30 in South 6 mph 7 mph 43 % 0 in
13:57 71.2 °F 46.9 °F 30 in East 2 mph 8 mph 42 % 0 in
14:02 70.5 °F 45.7 °F 30 in Calm   8 mph 41 % 0 in
14:07 70.5 °F 47.5 °F 30 in SSE 2 mph 8 mph 44 % 0 in
14:12 70.9 °F 47.3 °F 30 in SSW 7 mph 7 mph 43 % 0 in
14:17 70.3 °F 45.5 °F 30 in SW 5 mph 9 mph 41 % 0 in
14:22 70 °F 46.4 °F 30 in East 1 mph 9 mph 43 % 0 in
14:27 70.2 °F 46.6 °F 30 in SW 1 mph 9 mph 43 % 0 in
14:32 70.3 °F 46.8 °F 30 in WNW 2 mph 9 mph 43 % 0 in
14:37 70.9 °F 46.6 °F 30 in SSW 6 mph 6 mph 42 % 0 in
14:42 71.1 °F 46.2 °F 30 in Calm   7 mph 41 % 0 in
14:47 71.4 °F 45.9 °F 30 in Calm   7 mph 40 % 0 in
14:52 71.8 °F 47.5 °F 30 in SW 2 mph 9 mph 42 % 0 in
14:57 71.4 °F 44.4 °F 30 in SSW 2 mph 9 mph 38 % 0 in
15:02 70.7 °F 45.9 °F 30 in SW 4 mph 10 mph 41 % 0 in
15:07 71.1 °F 45.5 °F 30 in Calm   10 mph 40 % 0 in
15:17 70.9 °F 46.6 °F 30 in SW 1 mph 8 mph 42 % 0 in
15:22 71.2 °F 46.9 °F 30 in SW 5 mph 8 mph 42 % 0 in
15:27 71.1 °F 46.2 °F 30 in WSW 9 mph 9 mph 41 % 0 in
15:32 70.5 °F 46.4 °F 30 in SSW 2 mph 12 mph 42 % 0 in
15:37 70.7 °F 46.4 °F 30 in Calm   12 mph 42 % 0 in
15:42 71.2 °F 46.4 °F 30 in ENE 1 mph 12 mph 41 % 0 in
15:47 71.8 °F 46.2 °F 30 in SSE 2 mph 6 mph 40 % 0 in
15:57 71.8 °F 46.2 °F 30 in SSW 5 mph 7 mph 40 % 0 in
16:02 71.2 °F 45.7 °F 30 in SW 4 mph 9 mph 40 % 0 in
16:07 71.2 °F 46.4 °F 30 in WSW 2 mph 9 mph 41 % 0 in
16:12 71.2 °F 46.4 °F 30 in WSW 4 mph 9 mph 41 % 0 in
16:17 71.8 °F 46.8 °F 30 in West 4 mph 8 mph 41 % 0 in
16:22 71.8 °F 46.8 °F 30 in Calm   8 mph 41 % 0 in
16:27 72.3 °F 46.6 °F 30 in NNW 3 mph 8 mph 40 % 0 in
16:32 72.3 °F 46.6 °F 30 in WSW 1 mph 8 mph 40 % 0 in
16:37 72.7 °F 47.7 °F 30 in SW 5 mph 6 mph 41 % 0 in
16:42 72.7 °F 46.9 °F 30 in SW 3 mph 6 mph 40 % 0 in
16:47 72.5 °F 46.2 °F 30 in WSW 4 mph 7 mph 39 % 0 in
16:52 71.6 °F 46.6 °F 30 in SSW 5 mph 7 mph 41 % 0 in
16:57 71.4 °F 45.9 °F 30 in West 2 mph 7 mph 40 % 0 in
17:02 71.2 °F 45.7 °F 30 in West 2 mph 8 mph 40 % 0 in
17:07 71.2 °F 45.7 °F 30 in WSW 2 mph 9 mph 40 % 0 in
17:12 71.8 °F 46.8 °F 30 in WNW 3 mph 9 mph 41 % 0 in
17:17 71.8 °F 46.2 °F 30 in Calm   7 mph 40 % 0 in
17:22 72.3 °F 46.6 °F 30 in Calm   6 mph 40 % 0 in
17:27 72.5 °F 46.2 °F 30 in WSW 2 mph 5 mph 39 % 0 in
17:32 71.8 °F 46.2 °F 30 in West 5 mph 9 mph 40 % 0 in
17:37 71.2 °F 45.7 °F 30 in WSW 4 mph 11 mph 40 % 0 in
17:42 71.1 °F 45.5 °F 30 in WSW 2 mph 11 mph 40 % 0 in
17:47 70.5 °F 45 °F 30 in West 7 mph 9 mph 40 % 0 in
17:57 70.3 °F 44.2 °F 30 in West 3 mph 10 mph 39 % 0 in
18:02 70.2 °F 44.1 °F 29.9 in WSW 5 mph 10 mph 39 % 0 in
18:07 70.3 °F 44.2 °F 29.9 in West 4 mph 9 mph 39 % 0 in
18:12 70.3 °F 44.2 °F 29.9 in SW 3 mph 7 mph 39 % 0 in
18:17 70.3 °F 44.2 °F 29.9 in SW 3 mph 5 mph 39 % 0 in
18:22 70.3 °F 44.2 °F 29.9 in West 3 mph 8 mph 39 % 0 in
18:27 70.2 °F 44.1 °F 29.9 in West 5 mph 8 mph 39 % 0 in
18:32 70.2 °F 44.1 °F 29.9 in WSW 5 mph 8 mph 39 % 0 in
18:42 70 °F 44.6 °F 29.9 in West 3 mph 8 mph 40 % 0 in
18:47 69.8 °F 44.4 °F 29.9 in WSW 2 mph 8 mph 40 % 0 in
18:52 69.6 °F 44.2 °F 29.9 in West 2 mph 7 mph 40 % 0 in
18:57 69.6 °F 43.5 °F 29.9 in SSW 2 mph 6 mph 39 % 0 in
19:02 69.4 °F 44.1 °F 29.9 in West 3 mph 6 mph 40 % 0 in
19:07 69.4 °F 44.8 °F 29.9 in West 1 mph 5 mph 41 % 0 in
19:12 69.3 °F 45.1 °F 29.9 in SW 1 mph 5 mph 42 % 0 in
19:17 69.3 °F 45.9 °F 29.9 in West 2 mph 4 mph 43 % 0 in
19:22 69.1 °F 45.7 °F 29.9 in WSW 1 mph 4 mph 43 % 0 in
19:27 69.1 °F 46.2 °F 29.9 in WSW 1 mph 4 mph 44 % 0 in
19:32 68.9 °F 46 °F 29.9 in WSW 1 mph 3 mph 44 % 0 in
19:37 68.7 °F 45.9 °F 29.9 in Calm   3 mph 44 % 0 in
19:42 68.7 °F 47.1 °F 29.9 in Calm   2 mph 46 % 0 in
19:47 68.7 °F 46.6 °F 29.9 in Calm   2 mph 45 % 0 in
19:52 68.7 °F 46.6 °F 29.9 in Calm   1 mph 45 % 0 in
19:57 68.5 °F 46.9 °F 29.9 in Calm   1 mph 46 % 0 in
20:02 68.4 °F 47.3 °F 29.9 in Calm   1 mph 47 % 0 in
20:07 68.2 °F 46.6 °F 29.9 in Calm     46 % 0 in
20:12 68.2 °F 46 °F 29.9 in Calm     45 % 0 in
20:17 68.2 °F 47.7 °F 29.9 in Calm     48 % 0 in
20:22 67.6 °F 47.3 °F 29.9 in Calm     48 % 0 in
20:27 67.6 °F 46 °F 29.9 in Calm     46 % 0 in
20:32 67.6 °F 47.3 °F 29.9 in Calm     48 % 0 in
20:37 67.3 °F 47.5 °F 29.9 in Calm     49 % 0 in
20:42 66.7 °F 48 °F 29.9 in Calm     51 % 0 in
20:47 66.6 °F 48.9 °F 29.9 in Calm     53 % 0 in
20:52 66 °F 48.9 °F 29.9 in Calm     54 % 0 in
20:57 65.8 °F 48.7 °F 29.9 in Calm     54 % 0 in
21:02 65.5 °F 48.9 °F 29.9 in Calm     55 % 0 in
21:07 65.3 °F 47.7 °F 29.9 in Calm     53 % 0 in
21:12 65.3 °F 48.2 °F 30 in Calm     54 % 0 in
21:17 64.9 °F 48.4 °F 30 in Calm     55 % 0 in
21:22 64.8 °F 48.7 °F 30 in Calm     56 % 0 in
21:27 64.4 °F 48.9 °F 30 in Calm     57 % 0 in
21:32 64.4 °F 47.8 °F 30 in Calm     55 % 0 in
21:37 64.6 °F 47.1 °F 30 in Calm     53 % 0 in
21:42 64.9 °F 47.5 °F 30 in Calm     53 % 0 in
21:47 64.9 °F 48.9 °F 30 in Calm     56 % 0 in
21:52 64.8 °F 48.7 °F 30 in Calm     56 % 0 in
22:02 64.6 °F 48.6 °F 30 in Calm     56 % 0 in
22:07 64.6 °F 48.9 °F 30 in Calm     57 % 0 in
22:12 64.6 °F 48.9 °F 30 in Calm     57 % 0 in
22:17 64.6 °F 49.5 °F 30 in ESE 1 mph   58 % 0 in
22:22 64.4 °F 49.8 °F 30 in Calm   2 mph 59 % 0 in
22:27 64.2 °F 50 °F 30 in Calm   2 mph 60 % 0 in
22:37 64 °F 50.4 °F 30 in Calm   2 mph 61 % 0 in
22:42 64 °F 50.4 °F 30 in SSW 1 mph 2 mph 61 % 0 in
22:47 64 °F 50.4 °F 30 in SSW 1 mph 3 mph 61 % 0 in
22:52 64 °F 50.4 °F 30 in South 1 mph 3 mph 61 % 0 in
22:57 63.9 °F 50.2 °F 30 in SSE 2 mph 3 mph 61 % 0 in
23:02 63.9 °F 50.2 °F 30 in Calm   2 mph 61 % 0 in
23:07 63.9 °F 50.2 °F 30 in Calm   2 mph 61 % 0 in
23:12 63.7 °F 50 °F 30 in South 1 mph 3 mph 61 % 0 in
23:17 63.7 °F 50.9 °F 30 in Calm   4 mph 63 % 0 in
23:22 63.3 °F 50.9 °F 30 in Calm   4 mph 64 % 0 in
23:27 63.1 °F 51.3 °F 30 in SSW 1 mph 3 mph 65 % 0 in
23:32 62.8 °F 51.6 °F 30 in Calm   3 mph 67 % 0 in
23:37 62.2 °F 52 °F 30 in Calm   3 mph 69 % 0 in
23:42 61.9 °F 51.6 °F 30 in Calm   3 mph 69 % 0 in
23:47 61.9 °F 52.3 °F 30 in Calm   1 mph 71 % 0 in
23:52 61.7 °F 52.2 °F 30 in Calm   1 mph 71 % 0 in
23:57 61.5 °F 52.7 °F 30 in Calm   1 mph 73 % 0 in
Meteo18
Compliments of Weather Underground - 4 mb

Script developed by  Jim McMurry - jmcmurry@mwt.net Adapted for the template by  Wim van der Kuil - Leuven-Template.eu

You find our weather info also at:

European Weather Network

Weather Underground

Equipment we use:

Weather-station
Davis Vue

Weather-program
Meteohub

Weather-server
Raspberry PI 2 B+

Provider
1 and 1

Davis Vue

Meteohub

Raspberry PI 2 B+

1 and 1